Time;durP1;ratioP1;P1;durP2;ratioP2;P2;SDS_P1;SDS_P2;PMS_P1;PMS_P2;Temp;Humidity;BMP_temperature;BMP_pressure;BME280_temperature;BME280_humidity;BME280_pressure;Samples;Min_cycle;Max_cycle;Signal;HPM_P1;HPM_P2
2023/10/28 00:01:16;;;;;;;10.27;7.50;;;8.40;99.90;;;;;;5054231;28;20210;-62
2023/10/28 00:03:42;;;;;;;10.32;6.40;;;8.30;99.90;;;;;;5054537;28;20170;-61
2023/10/28 00:06:09;;;;;;;14.93;7.50;;;8.30;99.90;;;;;;5073152;28;20220;-61
2023/10/28 00:08:35;;;;;;;13.18;7.28;;;8.30;99.90;;;;;;5073392;28;20234;-62
2023/10/28 00:11:01;;;;;;;13.82;6.80;;;8.30;99.90;;;;;;5074316;28;20264;-61
2023/10/28 00:13:27;;;;;;;7.30;6.47;;;8.30;99.90;;;;;;5074400;28;20227;-62
2023/10/28 00:15:53;;;;;;;12.52;6.60;;;8.20;99.90;;;;;;5074563;28;20174;-62
2023/10/28 00:18:19;;;;;;;9.95;6.60;;;8.20;99.90;;;;;;5074456;28;20262;-61
2023/10/28 00:20:45;;;;;;;12.77;7.53;;;8.20;99.90;;;;;;5073727;28;20185;-62
2023/10/28 00:23:13;;;;;;;12.20;8.02;;;8.20;99.90;;;;;;5074938;28;20177;-62
2023/10/28 00:25:39;;;;;;;14.18;8.23;;;8.20;99.90;;;;;;5074338;28;20516;-61
2023/10/28 00:28:05;;;;;;;19.40;8.25;;;8.20;99.90;;;;;;5069987;28;20182;-62
2023/10/28 00:30:31;;;;;;;11.48;7.18;;;8.20;99.90;;;;;;5054121;28;20273;-61
2023/10/28 00:32:59;;;;;;;16.10;7.47;;;8.30;99.90;;;;;;5053939;28;20219;-62
2023/10/28 00:35:28;;;;;;;15.07;7.10;;;8.30;99.90;;;;;;5065324;28;20205;-62
2023/10/28 00:37:54;;;;;;;13.45;8.30;;;8.30;99.90;;;;;;5073677;28;20169;-61
2023/10/28 00:40:20;;;;;;;12.77;7.57;;;8.30;99.90;;;;;;5073648;28;20253;-62
2023/10/28 00:42:46;;;;;;;16.75;7.70;;;8.30;99.90;;;;;;5073752;28;20670;-62
2023/10/28 00:45:13;;;;;;;12.18;7.15;;;8.20;99.90;;;;;;5073656;28;20185;-62
2023/10/28 00:47:43;;;;;;;13.35;6.90;;;8.20;99.90;;;;;;5073488;28;20174;-62
2023/10/28 00:50:11;;;;;;;8.98;6.50;;;8.20;99.90;;;;;;5073674;28;20669;-61
2023/10/28 00:52:58;;;;;;;11.52;6.78;;;8.20;99.90;;;;;;5073675;28;20203;-61
2023/10/28 00:55:24;;;;;;;11.82;6.68;;;8.20;99.90;;;;;;5073788;28;20188;-62
2023/10/28 00:57:50;;;;;;;12.48;6.22;;;8.20;99.90;;;;;;5071296;28;20177;-61
2023/10/28 01:00:17;;;;;;;13.25;6.45;;;8.30;99.90;;;;;;5053572;28;20584;-61
2023/10/28 01:02:43;;;;;;;10.65;6.53;;;8.30;99.90;;;;;;5053426;28;20228;-62
2023/10/28 01:05:11;;;;;;;10.18;6.10;;;8.30;99.90;;;;;;5062765;28;20546;-61
2023/10/28 01:07:39;;;;;;;12.13;6.63;;;8.40;99.90;;;;;;5073409;28;20178;-61
2023/10/28 01:10:06;;;;;;;11.32;6.32;;;8.40;99.90;;;;;;5073795;28;20177;-62
2023/10/28 01:12:31;;;;;;;9.90;6.07;;;8.40;99.90;;;;;;5073552;28;20573;-62
2023/10/28 01:14:57;;;;;;;7.00;6.20;;;8.40;99.90;;;;;;5073421;28;20184;-61
2023/10/28 01:17:26;;;;;;;13.32;6.15;;;8.30;99.90;;;;;;5073779;28;20181;-62
2023/10/28 01:19:53;;;;;;;9.60;5.95;;;8.30;99.90;;;;;;5074185;28;20497;-62
2023/10/28 01:22:21;;;;;;;12.85;6.32;;;8.30;99.90;;;;;;5073363;28;20197;-62
2023/10/28 01:24:47;;;;;;;8.45;5.53;;;8.30;99.90;;;;;;5073324;28;20170;-62
2023/10/28 01:27:13;;;;;;;9.77;6.45;;;8.30;99.90;;;;;;5073454;28;20169;-61
2023/10/28 01:29:38;;;;;;;8.55;6.07;;;8.30;99.90;;;;;;5056068;28;20182;-62
2023/10/28 01:32:04;;;;;;;11.93;6.30;;;8.40;99.90;;;;;;5053219;28;20225;-62
2023/10/28 01:34:31;;;;;;;11.23;6.45;;;8.40;99.90;;;;;;5057534;28;20666;-62
2023/10/28 01:36:58;;;;;;;8.35;6.05;;;8.40;99.90;;;;;;5072966;28;20543;-62
2023/10/28 01:39:24;;;;;;;14.68;7.13;;;8.40;99.90;;;;;;5072896;28;20189;-62
2023/10/28 01:41:49;;;;;;;13.63;6.63;;;8.40;99.90;;;;;;5073404;28;20201;-62
2023/10/28 01:44:16;;;;;;;14.13;6.55;;;8.40;99.90;;;;;;5073060;28;20549;-63
2023/10/28 01:46:42;;;;;;;11.75;6.65;;;8.40;99.90;;;;;;5073168;28;20162;-62
2023/10/28 01:49:10;;;;;;;8.30;6.43;;;8.40;99.90;;;;;;5073168;28;20170;-62
2023/10/28 01:51:36;;;;;;;6.78;5.93;;;8.50;99.90;;;;;;5072723;28;20568;-63
2023/10/28 01:54:02;;;;;;;11.45;6.28;;;8.50;99.90;;;;;;5073000;28;20173;-62
2023/10/28 01:56:28;;;;;;;9.52;6.25;;;8.50;99.90;;;;;;5072923;28;20170;-62
2023/10/28 01:58:54;;;;;;;9.18;6.32;;;8.50;99.90;;;;;;5062223;28;20272;-62
2023/10/28 02:01:25;;;;;;;11.88;6.60;;;8.50;99.90;;;;;;5052738;28;20293;-63
2023/10/28 02:03:51;;;;;;;7.65;6.35;;;8.50;99.90;;;;;;5051835;28;20174;-62
2023/10/28 02:06:17;;;;;;;8.82;6.22;;;8.50;99.90;;;;;;5071276;28;20235;-62
2023/10/28 02:08:42;;;;;;;13.27;6.78;;;8.60;99.90;;;;;;5073503;28;20165;-62
2023/10/28 02:11:08;;;;;;;11.48;5.93;;;8.60;99.90;;;;;;5076433;28;20193;-62
2023/10/28 02:13:35;;;;;;;8.07;5.95;;;8.60;99.90;;;;;;5075061;28;20182;-62
2023/10/28 02:16:01;;;;;;;8.23;5.53;;;8.60;99.90;;;;;;5076461;28;20198;-62
2023/10/28 02:18:27;;;;;;;12.10;5.47;;;8.70;99.90;;;;;;5077164;28;20170;-61
2023/10/28 02:20:55;;;;;;;11.35;5.40;;;8.70;99.90;;;;;;5076332;28;20244;-61
2023/10/28 02:23:21;;;;;;;9.88;5.00;;;8.80;99.90;;;;;;5076714;28;20158;-61
2023/10/28 02:25:46;;;;;;;7.68;4.90;;;8.90;99.90;;;;;;5076689;28;20177;-61
2023/10/28 02:28:13;;;;;;;5.28;4.35;;;8.90;99.90;;;;;;5076568;28;20197;-61
2023/10/28 02:30:40;;;;;;;13.40;5.43;;;9.00;99.90;;;;;;5076015;28;20185;-61
2023/10/28 02:33:06;;;;;;;9.25;4.72;;;9.00;99.90;;;;;;5074903;28;20272;-61
2023/10/28 02:35:35;;;;;;;11.13;5.22;;;9.00;99.90;;;;;;5063234;28;20186;-62
2023/10/28 02:38:01;;;;;;;10.70;4.97;;;9.10;99.90;;;;;;5056172;28;20186;-61
2023/10/28 02:40:27;;;;;;;7.70;4.68;;;9.10;99.90;;;;;;5056338;28;20408;-61
2023/10/28 02:42:53;;;;;;;9.43;4.80;;;9.10;99.90;;;;;;5055929;28;20789;-61
2023/10/28 02:45:19;;;;;;;9.45;4.90;;;9.10;99.90;;;;;;5055968;28;20201;-61
2023/10/28 02:47:45;;;;;;;6.18;4.85;;;9.10;99.90;;;;;;5055846;28;20166;-62
2023/10/28 02:50:11;;;;;;;9.93;4.90;;;9.10;99.90;;;;;;5055679;28;20178;-61
2023/10/28 02:52:37;;;;;;;8.18;4.85;;;9.20;99.90;;;;;;5054586;28;20186;-61
2023/10/28 02:55:05;;;;;;;9.02;5.28;;;9.20;99.90;;;;;;5055900;28;20185;-61
2023/10/28 02:57:32;;;;;;;8.73;5.22;;;9.20;99.90;;;;;;5054507;28;20240;-61
2023/10/28 02:59:58;;;;;;;8.35;4.95;;;9.20;99.90;;;;;;5075406;28;20185;-61
2023/10/28 03:02:23;;;;;;;14.60;5.55;;;9.20;99.90;;;;;;5075502;28;20213;-61
2023/10/28 03:04:49;;;;;;;8.45;4.97;;;9.20;99.90;;;;;;5068822;28;20178;-61
2023/10/28 03:07:15;;;;;;;15.90;5.82;;;9.20;99.90;;;;;;5054825;28;20166;-61
2023/10/28 03:09:41;;;;;;;11.25;5.68;;;9.20;99.90;;;;;;5056080;28;20257;-61
2023/10/28 03:12:07;;;;;;;9.20;5.80;;;9.20;99.90;;;;;;5055600;28;20194;-61
2023/10/28 03:14:32;;;;;;;12.35;5.75;;;9.20;99.90;;;;;;5055319;28;20676;-61
2023/10/28 03:16:59;;;;;;;10.60;5.45;;;9.30;99.90;;;;;;5055851;28;20202;-62
2023/10/28 03:19:24;;;;;;;9.82;5.50;;;9.20;99.90;;;;;;5055282;28;20667;-61
2023/10/28 03:21:50;;;;;;;8.48;5.45;;;9.20;99.90;;;;;;5055070;28;20214;-61
2023/10/28 03:24:16;;;;;;;11.80;5.60;;;9.30;99.90;;;;;;5055272;28;20171;-61
2023/10/28 03:26:42;;;;;;;7.10;5.28;;;9.30;99.90;;;;;;5055873;28;20166;-61
2023/10/28 03:29:08;;;;;;;11.25;5.78;;;9.30;99.90;;;;;;5067970;28;20177;-61
2023/10/28 03:31:33;;;;;;;8.25;5.63;;;9.30;99.90;;;;;;5074924;28;20189;-61
2023/10/28 03:33:59;;;;;;;8.70;6.03;;;9.30;99.90;;;;;;5074844;28;20174;-61
2023/10/28 03:36:25;;;;;;;10.40;5.35;;;9.30;99.90;;;;;;5054965;28;20198;-61
2023/10/28 03:38:51;;;;;;;12.55;5.47;;;9.30;99.90;;;;;;5055381;28;20205;-61
2023/10/28 03:41:17;;;;;;;14.13;6.80;;;9.30;99.90;;;;;;5054613;28;20252;-61
2023/10/28 03:43:42;;;;;;;14.55;5.88;;;9.30;99.90;;;;;;5054816;28;20181;-61
2023/10/28 03:46:18;;;;;;;11.73;5.90;;;9.30;99.90;;;;;;5054752;28;20193;-61
2023/10/28 03:48:44;;;;;;;11.05;5.40;;;9.30;99.90;;;;;;5054578;28;20159;-61
2023/10/28 03:51:09;;;;;;;8.63;5.95;;;9.30;99.90;;;;;;5054476;28;20186;-61
2023/10/28 03:53:35;;;;;;;11.50;6.30;;;9.30;99.90;;;;;;5053535;28;20549;-61
2023/10/28 03:56:01;;;;;;;9.68;5.85;;;9.40;99.90;;;;;;5055118;28;20171;-61
2023/10/28 03:58:27;;;;;;;10.32;6.40;;;9.40;99.90;;;;;;5061707;28;20217;-62
2023/10/28 04:00:53;;;;;;;15.65;6.88;;;9.40;99.90;;;;;;5074567;28;20217;-61
2023/10/28 04:03:20;;;;;;;15.10;6.72;;;9.40;99.90;;;;;;5074600;28;20522;-61
2023/10/28 04:05:49;;;;;;;9.07;5.90;;;9.40;99.90;;;;;;5059534;28;20183;-61
2023/10/28 04:08:15;;;;;;;16.13;7.53;;;9.40;99.90;;;;;;5054084;28;20228;-62
2023/10/28 04:10:41;;;;;;;11.73;6.57;;;9.40;99.90;;;;;;5054220;28;20273;-61
2023/10/28 04:13:07;;;;;;;10.68;6.45;;;9.50;99.90;;;;;;5054307;28;20175;-61
2023/10/28 04:15:35;;;;;;;14.20;6.68;;;9.50;99.90;;;;;;5054399;28;20188;-61
2023/10/28 04:18:01;;;;;;;11.80;7.07;;;9.50;99.90;;;;;;5052839;28;20182;-62
2023/10/28 04:20:27;;;;;;;12.35;6.68;;;9.50;99.90;;;;;;5052521;28;20198;-60
2023/10/28 04:22:53;;;;;;;10.50;6.53;;;9.40;99.90;;;;;;5053864;28;20287;-61
2023/10/28 04:25:19;;;;;;;8.70;5.95;;;9.40;99.90;;;;;;5054026;28;20533;-61
2023/10/28 04:27:45;;;;;;;23.30;6.97;;;9.40;99.90;;;;;;5055532;28;20166;-62
2023/10/28 04:30:11;;;;;;;14.65;6.68;;;9.40;99.90;;;;;;5073960;28;20220;-61
2023/10/28 04:32:40;;;;;;;11.05;6.15;;;9.40;99.90;;;;;;5073368;28;20212;-61
2023/10/28 04:35:06;;;;;;;17.05;6.78;;;9.40;99.90;;;;;;5064974;28;20728;-61
2023/10/28 04:37:32;;;;;;;9.80;6.60;;;9.40;99.90;;;;;;5053485;28;20174;-61
2023/10/28 04:39:58;;;;;;;9.80;6.13;;;9.40;99.90;;;;;;5054224;28;20174;-62
2023/10/28 04:42:24;;;;;;;10.25;6.85;;;9.40;99.90;;;;;;5053862;28;20575;-61
2023/10/28 04:44:50;;;;;;;8.30;5.97;;;9.30;99.90;;;;;;5054368;28;20639;-61
2023/10/28 04:47:15;;;;;;;9.50;6.95;;;9.40;99.90;;;;;;5054704;28;20173;-61
2023/10/28 04:49:42;;;;;;;8.73;5.95;;;9.40;99.90;;;;;;5054401;28;20170;-61
2023/10/28 04:52:08;;;;;;;7.22;5.70;;;9.40;99.90;;;;;;5053618;28;20217;-62
2023/10/28 04:54:40;;;;;;;11.05;6.68;;;9.40;99.90;;;;;;5054027;28;20263;-62
2023/10/28 04:57:06;;;;;;;9.98;6.38;;;9.40;99.90;;;;;;5052646;28;20167;-62
2023/10/28 04:59:32;;;;;;;12.15;6.78;;;9.30;99.90;;;;;;5070102;28;20181;-61
2023/10/28 05:01:57;;;;;;;11.32;6.90;;;9.20;99.90;;;;;;5073634;28;20209;-61
2023/10/28 05:04:24;;;;;;;13.52;7.00;;;9.10;99.90;;;;;;5071104;28;20183;-61
2023/10/28 05:06:51;;;;;;;12.40;7.68;;;9.10;99.90;;;;;;5053357;28;20174;-61
2023/10/28 05:09:20;;;;;;;15.73;8.30;;;9.10;99.90;;;;;;5053535;28;20166;-61
2023/10/28 05:11:46;;;;;;;14.05;7.75;;;9.00;99.90;;;;;;5053617;28;20194;-61
2023/10/28 05:14:14;;;;;;;13.50;7.88;;;9.00;99.90;;;;;;5053429;28;20159;-61
2023/10/28 05:16:40;;;;;;;15.98;8.25;;;9.00;99.90;;;;;;5053565;28;20189;-61
2023/10/28 05:19:06;;;;;;;13.20;8.45;;;9.00;99.90;;;;;;5052999;28;20285;-61
2023/10/28 05:21:31;;;;;;;12.07;7.93;;;9.00;99.90;;;;;;5052817;28;20284;-62
2023/10/28 05:23:57;;;;;;;16.20;8.43;;;9.00;99.90;;;;;;5052362;28;20258;-61
2023/10/28 05:26:23;;;;;;;15.48;7.80;;;9.00;99.90;;;;;;5053009;28;20170;-61
2023/10/28 05:28:51;;;;;;;15.45;8.00;;;9.00;99.90;;;;;;5063151;28;20276;-61
2023/10/28 05:31:17;;;;;;;14.15;7.18;;;9.00;99.90;;;;;;5073295;28;20196;-61
2023/10/28 05:33:43;;;;;;;12.85;7.35;;;9.00;99.90;;;;;;5073141;28;20589;-61
2023/10/28 05:36:08;;;;;;;14.82;7.43;;;8.90;99.90;;;;;;5054931;28;20186;-61
2023/10/28 05:38:34;;;;;;;16.40;8.10;;;8.90;99.90;;;;;;5051634;28;20182;-61
2023/10/28 05:41:00;;;;;;;11.68;6.80;;;8.90;99.90;;;;;;5052721;28;20202;-61
2023/10/28 05:43:26;;;;;;;16.05;7.43;;;8.90;99.90;;;;;;5053044;28;20236;-61
2023/10/28 05:45:52;;;;;;;10.50;6.47;;;8.90;99.90;;;;;;5056630;28;20175;-61
2023/10/28 05:48:18;;;;;;;7.95;6.60;;;8.90;99.90;;;;;;5056551;28;20672;-61
2023/10/28 05:50:43;;;;;;;11.07;6.20;;;8.90;99.90;;;;;;5056296;28;20190;-60
2023/10/28 05:53:09;;;;;;;12.70;8.10;;;8.90;99.90;;;;;;5056662;28;20178;-61
2023/10/28 05:55:35;;;;;;;10.70;7.10;;;8.90;99.90;;;;;;5056770;28;20185;-61
2023/10/28 05:58:01;;;;;;;10.57;6.68;;;8.90;99.90;;;;;;5060068;28;20201;-61
2023/10/28 06:00:28;;;;;;;8.80;7.10;;;8.90;99.90;;;;;;5076218;28;20658;-60
2023/10/28 06:02:54;;;;;;;12.02;7.50;;;8.90;99.90;;;;;;5075237;28;20202;-61
2023/10/28 06:05:20;;;;;;;10.85;7.55;;;9.00;99.90;;;;;;5065570;28;20588;-61
2023/10/28 06:07:49;;;;;;;12.00;6.73;;;9.00;99.90;;;;;;5056196;28;20202;-61
2023/10/28 06:10:15;;;;;;;8.55;6.80;;;9.00;99.90;;;;;;5056634;28;20185;-61
2023/10/28 06:12:41;;;;;;;10.45;6.72;;;9.00;99.90;;;;;;5056422;28;20655;-61
2023/10/28 06:15:08;;;;;;;11.38;7.07;;;9.00;99.90;;;;;;5056340;28;20174;-61
2023/10/28 06:17:35;;;;;;;9.70;6.70;;;9.00;99.90;;;;;;5056248;28;20634;-62
2023/10/28 06:20:01;;;;;;;7.95;6.78;;;9.00;99.90;;;;;;5056486;28;20663;-62
2023/10/28 06:22:27;;;;;;;12.38;6.70;;;9.00;99.90;;;;;;5055830;28;20721;-61
2023/10/28 06:24:54;;;;;;;9.38;6.13;;;9.10;99.90;;;;;;5056113;28;20171;-61
2023/10/28 06:27:22;;;;;;;12.40;6.40;;;9.10;99.90;;;;;;5056030;28;20194;-61
2023/10/28 06:29:47;;;;;;;8.80;6.40;;;9.10;99.90;;;;;;5073100;28;20188;-63
2023/10/28 06:32:13;;;;;;;8.15;6.07;;;9.10;99.90;;;;;;5076073;28;20193;-63
2023/10/28 06:34:39;;;;;;;7.63;6.07;;;9.00;99.90;;;;;;5070932;28;20213;-63
2023/10/28 06:37:05;;;;;;;13.65;5.88;;;9.00;99.90;;;;;;5055903;28;20194;-63
2023/10/28 06:39:34;;;;;;;11.13;5.60;;;9.00;99.90;;;;;;5056283;28;20175;-63
2023/10/28 06:42:01;;;;;;;9.03;5.63;;;9.00;99.90;;;;;;5055759;28;20683;-63
2023/10/28 06:44:27;;;;;;;10.73;5.53;;;9.00;99.90;;;;;;5054360;28;20181;-63
2023/10/28 06:46:53;;;;;;;8.05;5.45;;;9.00;99.90;;;;;;5055722;28;20167;-63
2023/10/28 06:49:19;;;;;;;7.90;5.45;;;9.00;99.90;;;;;;5055737;28;20644;-63
2023/10/28 06:51:45;;;;;;;9.82;5.47;;;9.10;99.90;;;;;;5053989;28;20275;-63
2023/10/28 06:54:11;;;;;;;8.55;5.57;;;9.00;99.90;;;;;;5055331;28;20186;-63
2023/10/28 06:56:37;;;;;;;10.32;5.35;;;9.10;99.90;;;;;;5055507;28;20262;-63
2023/10/28 06:59:02;;;;;;;9.55;4.72;;;9.10;99.90;;;;;;5067654;28;20649;-63
2023/10/28 07:01:28;;;;;;;7.85;4.75;;;9.10;99.90;;;;;;5075535;28;20221;-63
2023/10/28 07:03:54;;;;;;;8.48;4.95;;;9.20;99.90;;;;;;5075459;28;20174;-63
2023/10/28 07:06:20;;;;;;;7.15;4.45;;;9.20;99.90;;;;;;5056059;28;20550;-62
2023/10/28 07:08:46;;;;;;;5.78;4.45;;;9.20;99.90;;;;;;5055626;28;20213;-63
2023/10/28 07:11:13;;;;;;;4.97;4.13;;;9.30;99.90;;;;;;5055603;28;20191;-63
2023/10/28 07:13:39;;;;;;;7.07;4.57;;;9.30;99.90;;;;;;5054077;28;20269;-63
2023/10/28 07:16:06;;;;;;;5.68;4.20;;;9.30;99.90;;;;;;5054846;28;20167;-63
2023/10/28 07:18:32;;;;;;;10.63;5.07;;;9.40;99.90;;;;;;5055989;28;20507;-63
2023/10/28 07:20:58;;;;;;;4.90;4.32;;;9.40;99.90;;;;;;5055172;28;20190;-63
2023/10/28 07:23:27;;;;;;;4.40;4.00;;;9.40;99.90;;;;;;5054806;28;20213;-63
2023/10/28 07:25:57;;;;;;;7.57;4.40;;;9.40;99.90;;;;;;5054758;28;20185;-63
2023/10/28 07:28:24;;;;;;;4.93;4.15;;;9.40;99.90;;;;;;5061317;28;20265;-64
2023/10/28 07:30:51;;;;;;;5.05;4.20;;;9.40;99.90;;;;;;5074818;28;20186;-64
2023/10/28 07:33:18;;;;;;;6.10;4.15;;;9.50;99.90;;;;;;5074764;28;20170;-64
2023/10/28 07:35:45;;;;;;;5.00;3.92;;;9.50;99.90;;;;;;5060530;28;20183;-63
2023/10/28 07:38:12;;;;;;;4.00;3.60;;;9.50;99.90;;;;;;5054624;28;20186;-63
2023/10/28 07:40:39;;;;;;;5.18;3.90;;;9.50;99.90;;;;;;5055219;28;20244;-64
2023/10/28 07:43:05;;;;;;;4.45;4.05;;;9.60;99.90;;;;;;5055257;28;20640;-64
2023/10/28 07:45:33;;;;;;;5.93;4.10;;;9.60;99.90;;;;;;5055153;28;20181;-63
2023/10/28 07:47:59;;;;;;;7.78;3.63;;;9.60;99.90;;;;;;5054970;28;20258;-64
2023/10/28 07:50:24;;;;;;;4.03;3.63;;;9.70;99.90;;;;;;5054553;28;20198;-64
2023/10/28 07:52:50;;;;;;;5.63;3.38;;;9.70;99.90;;;;;;5054479;28;20366;-64
2023/10/28 07:55:16;;;;;;;6.80;3.55;;;9.70;99.90;;;;;;5055046;28;20178;-64
2023/10/28 07:57:43;;;;;;;5.22;3.20;;;9.80;99.90;;;;;;5054269;28;20178;-64
2023/10/28 08:00:11;;;;;;;3.05;2.90;;;9.70;99.90;;;;;;5074545;28;20177;-64
2023/10/28 08:02:37;;;;;;;3.95;2.97;;;9.80;99.90;;;;;;5074244;28;20279;-63
2023/10/28 08:05:04;;;;;;;6.35;2.88;;;9.70;99.90;;;;;;5065894;28;20206;-62
2023/10/28 08:07:30;;;;;;;4.55;3.05;;;9.80;99.90;;;;;;5053357;28;20179;-62
2023/10/28 08:09:56;;;;;;;5.00;3.30;;;9.80;99.90;;;;;;5053295;28;20179;-62
2023/10/28 08:12:25;;;;;;;3.50;3.20;;;9.90;99.90;;;;;;5053835;28;20663;-62
2023/10/28 08:14:52;;;;;;;6.68;3.15;;;10.00;99.90;;;;;;5052921;28;20259;-62
2023/10/28 08:17:18;;;;;;;3.40;3.10;;;10.00;99.90;;;;;;5053962;28;20265;-62
2023/10/28 08:19:44;;;;;;;7.95;3.10;;;10.10;99.90;;;;;;5054391;28;20198;-62
2023/10/28 08:22:12;;;;;;;4.20;3.35;;;10.20;99.90;;;;;;5053447;28;20199;-63
2023/10/28 08:24:38;;;;;;;3.03;2.83;;;10.30;99.90;;;;;;5053900;28;20198;-63
2023/10/28 08:27:04;;;;;;;6.85;3.35;;;10.50;99.90;;;;;;5054411;28;20190;-63
2023/10/28 08:29:32;;;;;;;4.82;3.22;;;10.60;99.90;;;;;;5069742;28;20188;-63
2023/10/28 08:31:58;;;;;;;3.42;3.13;;;10.70;99.90;;;;;;5072616;28;20243;-63
2023/10/28 08:34:25;;;;;;;6.30;3.10;;;10.80;99.90;;;;;;5070768;28;20178;-63
2023/10/28 08:36:52;;;;;;;5.70;2.80;;;10.80;99.90;;;;;;5053419;28;20209;-63
2023/10/28 08:39:18;;;;;;;3.60;3.22;;;10.80;99.90;;;;;;5053468;28;20675;-63
2023/10/28 08:41:44;;;;;;;5.97;3.30;;;10.70;99.90;;;;;;5053335;28;20238;-63
2023/10/28 08:44:14;;;;;;;4.25;3.13;;;10.70;99.90;;;;;;5052112;28;20185;-63
2023/10/28 08:46:41;;;;;;;4.60;2.78;;;10.70;99.90;;;;;;5053363;28;20286;-62
2023/10/28 08:49:12;;;;;;;4.68;3.45;;;10.70;99.90;;;;;;5053376;28;20166;-62
2023/10/28 08:51:44;;;;;;;4.28;2.92;;;10.70;99.90;;;;;;5053061;28;20201;-62
2023/10/28 08:54:10;;;;;;;4.07;2.75;;;10.60;99.90;;;;;;5053664;28;20212;-63
2023/10/28 08:56:43;;;;;;;3.33;2.75;;;10.60;99.90;;;;;;5053336;28;20182;-61
2023/10/28 08:59:09;;;;;;;3.35;2.70;;;10.60;99.90;;;;;;5066147;28;20188;-63
2023/10/28 09:01:36;;;;;;;3.88;2.70;;;10.60;99.90;;;;;;5073014;28;20213;-62
2023/10/28 09:04:05;;;;;;;2.65;2.45;;;10.60;99.90;;;;;;5073018;28;20173;-63
2023/10/28 09:06:31;;;;;;;2.97;2.70;;;10.70;99.90;;;;;;5052822;28;20166;-62
2023/10/28 09:08:58;;;;;;;3.95;3.05;;;10.70;99.90;;;;;;5053038;28;20539;-63
2023/10/28 09:11:25;;;;;;;3.00;2.70;;;10.70;99.90;;;;;;5052851;28;20221;-63
2023/10/28 09:13:51;;;;;;;3.10;2.80;;;10.70;99.90;;;;;;5053256;28;20174;-62
2023/10/28 09:16:17;;;;;;;6.65;3.38;;;10.70;99.90;;;;;;5051715;28;20178;-63
2023/10/28 09:18:44;;;;;;;4.75;3.03;;;10.70;99.90;;;;;;5055739;28;20218;-62
2023/10/28 09:21:11;;;;;;;4.43;2.67;;;10.70;99.90;;;;;;5056919;28;20297;-63
2023/10/28 09:23:37;;;;;;;5.72;2.55;;;10.60;99.90;;;;;;5056818;28;20185;-63
2023/10/28 09:26:04;;;;;;;2.60;2.40;;;10.60;99.90;;;;;;5057195;28;20565;-63
2023/10/28 09:28:31;;;;;;;2.53;2.30;;;10.70;99.90;;;;;;5064693;28;20242;-63
2023/10/28 09:30:58;;;;;;;2.80;2.55;;;10.70;99.90;;;;;;5076874;28;20186;-62
2023/10/28 09:33:24;;;;;;;2.65;2.50;;;10.70;99.90;;;;;;5076833;28;20178;-63
2023/10/28 09:35:55;;;;;;;3.33;2.92;;;10.80;99.90;;;;;;5061639;28;20671;-63
2023/10/28 09:38:22;;;;;;;3.30;3.00;;;10.90;99.90;;;;;;5056624;28;20174;-63
2023/10/28 09:40:48;;;;;;;3.08;2.78;;;10.90;99.90;;;;;;5056715;28;20230;-63
2023/10/28 09:43:15;;;;;;;2.65;2.33;;;11.00;99.90;;;;;;5055447;28;20279;-63
2023/10/28 09:45:46;;;;;;;2.45;2.35;;;11.00;99.90;;;;;;5056574;28;20297;-63
2023/10/28 09:48:16;;;;;;;3.00;2.40;;;11.10;99.90;;;;;;5057173;28;20190;-64
2023/10/28 09:50:48;;;;;;;2.60;2.50;;;11.10;99.90;;;;;;5056453;28;20563;-63
2023/10/28 09:53:17;;;;;;;2.88;2.78;;;11.10;99.90;;;;;;5056225;28;20166;-63
2023/10/28 09:55:44;;;;;;;5.50;2.80;;;11.10;99.90;;;;;;5056405;28;20198;-63
2023/10/28 09:58:25;;;;;;;3.58;2.53;;;11.10;99.90;;;;;;5061302;28;20228;-63
2023/10/28 10:00:58;;;;;;;5.20;2.60;;;11.10;99.90;;;;;;5076165;28;20231;-63
2023/10/28 10:03:53;;;;;;;2.58;2.47;;;11.10;99.90;;;;;;5076187;28;20229;-63
2023/10/28 10:06:19;;;;;;;2.40;2.30;;;11.10;99.90;;;;;;5057388;28;20175;-63
2023/10/28 10:08:50;;;;;;;3.30;2.60;;;11.10;99.90;;;;;;5055958;28;20166;-63
2023/10/28 10:11:26;;;;;;;2.90;2.63;;;11.10;99.90;;;;;;5056090;28;20190;-63
2023/10/28 10:13:53;;;;;;;2.65;2.45;;;11.10;99.90;;;;;;5056123;28;20165;-63
2023/10/28 10:16:46;;;;;;;2.90;2.70;;;11.00;99.90;;;;;;5056030;28;20731;-63
2023/10/28 10:19:20;;;;;;;2.72;2.53;;;11.00;99.90;;;;;;5056310;28;20178;-63
2023/10/28 10:21:52;;;;;;;2.80;2.50;;;11.10;99.90;;;;;;5055658;28;20690;-63
2023/10/28 10:24:22;;;;;;;2.70;2.58;;;11.10;99.90;;;;;;5054590;28;20273;-63
2023/10/28 10:26:59;;;;;;;2.97;2.78;;;11.20;99.90;;;;;;5056107;28;20581;-63
2023/10/28 10:29:29;;;;;;;2.92;2.50;;;11.20;99.90;;;;;;5070282;28;20214;-63
2023/10/28 10:31:56;;;;;;;3.08;2.65;;;11.30;99.90;;;;;;5075888;28;20193;-63
2023/10/28 10:34:39;;;;;;;5.15;4.10;;;11.30;99.90;;;;;;5072931;28;20243;-63
2023/10/28 10:37:06;;;;;;;4.05;2.90;;;11.30;99.90;;;;;;5055542;28;20261;-63
2023/10/28 10:39:46;;;;;;;3.20;2.70;;;11.30;99.90;;;;;;5055700;28;20186;-62
2023/10/28 10:42:15;;;;;;;3.40;3.10;;;11.30;99.90;;;;;;5056005;28;20206;-63
2023/10/28 10:44:41;;;;;;;3.53;2.80;;;11.30;99.90;;;;;;5055533;28;20283;-62
2023/10/28 10:47:08;;;;;;;4.65;3.20;;;11.30;99.90;;;;;;5055999;28;20603;-63
2023/10/28 10:49:36;;;;;;;5.93;4.28;;;11.30;99.90;;;;;;5055947;28;20178;-63
2023/10/28 10:52:03;;;;;;;8.43;3.22;;;11.40;99.90;;;;;;5055088;28;20198;-62
2023/10/28 10:54:30;;;;;;;4.30;3.50;;;11.30;99.90;;;;;;5055346;28;20170;-63
2023/10/28 10:56:56;;;;;;;12.50;5.05;;;11.40;99.90;;;;;;5055573;28;20178;-63
2023/10/28 10:59:22;;;;;;;6.78;4.55;;;11.40;99.90;;;;;;5070153;28;20178;-63
2023/10/28 11:01:48;;;;;;;4.28;3.70;;;11.40;99.90;;;;;;5075021;28;20587;-63
2023/10/28 11:04:14;;;;;;;5.85;3.92;;;11.50;99.90;;;;;;5073422;28;20259;-62
2023/10/28 11:06:40;;;;;;;4.75;3.20;;;11.50;99.90;;;;;;5055466;28;20670;-63
2023/10/28 11:09:06;;;;;;;6.75;3.65;;;11.50;99.90;;;;;;5054829;28;20253;-63
2023/10/28 11:11:38;;;;;;;6.32;4.03;;;11.60;99.90;;;;;;5055524;28;20201;-63
2023/10/28 11:14:05;;;;;;;7.15;3.55;;;11.80;99.90;;;;;;5054970;28;20162;-63
2023/10/28 11:16:32;;;;;;;5.55;3.10;;;12.20;99.90;;;;;;5054836;28;20178;-61
2023/10/28 11:19:02;;;;;;;8.85;3.08;;;12.60;99.90;;;;;;5054964;28;20218;-63
2023/10/28 11:21:30;;;;;;;6.15;3.33;;;12.90;99.90;;;;;;5054741;28;20233;-63
2023/10/28 11:23:56;;;;;;;5.63;3.30;;;13.20;99.90;;;;;;5054512;28;20182;-63
2023/10/28 11:26:23;;;;;;;4.35;2.80;;;13.40;99.90;;;;;;5054777;28;20166;-63
2023/10/28 11:28:49;;;;;;;4.40;3.15;;;13.60;99.90;;;;;;5063737;28;20196;-62
2023/10/28 11:31:19;;;;;;;3.03;2.50;;;13.80;99.90;;;;;;5074693;28;20207;-62
2023/10/28 11:33:45;;;;;;;5.45;2.90;;;13.60;99.90;;;;;;5074609;28;20154;-63
2023/10/28 11:36:11;;;;;;;3.70;2.70;;;13.40;99.90;;;;;;5056667;28;20178;-62
2023/10/28 11:38:37;;;;;;;3.10;2.53;;;13.40;99.90;;;;;;5054224;28;20607;-63
2023/10/28 11:41:04;;;;;;;3.58;3.22;;;13.40;99.90;;;;;;5053780;28;20223;-63
2023/10/28 11:43:31;;;;;;;4.80;2.90;;;13.60;99.90;;;;;;5054137;28;20193;-62
2023/10/28 11:45:56;;;;;;;4.13;2.80;;;13.70;99.90;;;;;;5054477;28;20178;-63
2023/10/28 11:48:22;;;;;;;5.22;2.70;;;13.60;99.90;;;;;;5054616;28;20545;-62
2023/10/28 11:50:48;;;;;;;3.53;2.70;;;13.50;99.90;;;;;;5054709;28;20190;-61
2023/10/28 11:53:22;;;;;;;3.90;2.72;;;13.50;99.90;;;;;;5054005;28;20611;-63
2023/10/28 11:55:47;;;;;;;2.80;2.60;;;13.40;99.90;;;;;;5054795;28;20163;-63
2023/10/28 11:58:13;;;;;;;5.57;2.80;;;13.30;99.90;;;;;;5059505;28;20299;-63
2023/10/28 12:00:39;;;;;;;5.10;2.67;;;13.10;99.90;;;;;;5073908;28;20196;-62
2023/10/28 12:03:05;;;;;;;3.20;2.58;;;13.10;99.90;;;;;;5074245;28;20557;-63
2023/10/28 12:05:33;;;;;;;5.53;3.28;;;13.10;99.90;;;;;;5061526;28;20189;-62
2023/10/28 12:07:59;;;;;;;18.38;10.43;;;13.30;99.90;;;;;;5052427;28;20179;-63
2023/10/28 12:10:26;;;;;;;30.33;17.60;;;13.70;99.90;;;;;;5053790;28;20171;-63
2023/10/28 12:12:51;;;;;;;25.60;14.73;;;14.00;99.90;;;;;;5053849;28;20216;-64
2023/10/28 12:15:17;;;;;;;7.80;3.88;;;14.40;99.90;;;;;;5053865;28;20206;-62
2023/10/28 12:17:44;;;;;;;8.70;3.20;;;14.60;99.90;;;;;;5053772;28;20183;-63
2023/10/28 12:20:14;;;;;;;9.45;3.72;;;14.70;99.90;;;;;;5053726;28;20174;-63
2023/10/28 12:22:40;;;;;;;5.53;3.08;;;14.70;99.90;;;;;;5052277;28;20579;-63
2023/10/28 12:25:11;;;;;;;8.63;3.10;;;14.50;99.90;;;;;;5053629;28;20171;-64
2023/10/28 12:27:37;;;;;;;7.63;3.15;;;14.40;99.90;;;;;;5052951;28;20743;-63
2023/10/28 12:30:06;;;;;;;11.25;3.70;;;14.50;99.90;;;;;;5073897;28;20257;-62
2023/10/28 12:32:33;;;;;;;5.05;3.10;;;14.50;99.90;;;;;;5073535;28;20257;-64
2023/10/28 12:34:59;;;;;;;8.02;2.97;;;14.40;99.90;;;;;;5064277;28;20679;-63
2023/10/28 12:37:28;;;;;;;11.52;3.42;;;14.30;99.90;;;;;;5053255;28;20180;-63
2023/10/28 12:39:54;;;;;;;5.18;3.03;;;14.00;99.90;;;;;;5053486;28;20167;-63
2023/10/28 12:42:19;;;;;;;7.55;3.55;;;13.90;99.90;;;;;;5053498;28;20792;-63
2023/10/28 12:44:45;;;;;;;6.07;2.97;;;14.10;99.90;;;;;;5053585;28;20171;-62
2023/10/28 12:47:11;;;;;;;11.02;3.67;;;14.40;99.90;;;;;;5053351;28;20178;-61
2023/10/28 12:49:37;;;;;;;7.80;3.35;;;14.70;99.90;;;;;;5053578;28;20254;-62